createdAt,value
2018-11-04T00:00:45.281Z,38.50
2018-11-04T00:03:13.596Z,35.67
2018-11-04T00:05:41.988Z,35.70
2018-11-04T00:08:10.321Z,35.37
2018-11-04T00:10:38.612Z,35.63
2018-11-04T00:13:06.947Z,35.67
2018-11-04T00:15:35.274Z,35.03
2018-11-04T00:18:03.579Z,34.80
2018-11-04T00:20:32.037Z,34.63
2018-11-04T00:23:00.466Z,34.67
2018-11-04T00:25:28.764Z,33.27
2018-11-04T00:27:57.057Z,35.37
2018-11-04T00:30:25.389Z,35.70
2018-11-04T00:32:53.672Z,36.00
2018-11-04T00:35:21.965Z,35.63
2018-11-04T00:37:50.329Z,32.97
2018-11-04T00:40:18.643Z,36.40
2018-11-04T00:42:46.946Z,35.30
2018-11-04T00:45:15.320Z,36.93
2018-11-04T00:47:43.604Z,34.40
2018-11-04T00:50:13.937Z,33.57
2018-11-04T00:52:42.805Z,34.57
2018-11-04T00:55:11.740Z,34.47
2018-11-04T00:57:40.292Z,35.20
2018-11-04T01:00:16.302Z,34.03
2018-11-04T01:02:45.673Z,33.03
2018-11-04T01:05:13.982Z,32.53
2018-11-04T01:07:42.414Z,32.33
2018-11-04T01:10:11.371Z,33.40
2018-11-04T01:12:40.955Z,34.63
2018-11-04T01:15:10.753Z,34.27
2018-11-04T01:17:39.501Z,33.90
2018-11-04T01:20:09.637Z,33.20
2018-11-04T01:22:38.280Z,32.73
2018-11-04T01:25:06.633Z,32.87
2018-11-04T01:27:35.122Z,33.53
2018-11-04T01:30:03.556Z,32.03
2018-11-04T01:32:32.069Z,32.93
2018-11-04T01:35:00.353Z,32.87
2018-11-04T01:37:28.777Z,32.47
2018-11-04T01:39:57.083Z,33.40
2018-11-04T01:42:25.361Z,33.83
2018-11-04T01:44:53.689Z,32.30
2018-11-04T01:47:21.969Z,31.63
2018-11-04T01:49:50.265Z,31.17
2018-11-04T01:52:18.657Z,26.13
2018-11-04T01:54:46.941Z,27.10
2018-11-04T01:57:15.228Z,26.33
2018-11-04T01:59:43.568Z,26.00
2018-11-04T02:02:11.956Z,24.53
2018-11-04T02:04:40.498Z,20.50
2018-11-04T02:07:08.853Z,18.67
2018-11-04T02:09:37.307Z,17.67
2018-11-04T02:12:06.084Z,16.83
2018-11-04T02:14:34.448Z,14.90
2018-11-04T02:17:02.728Z,14.57
2018-11-04T02:19:31.005Z,13.60
2018-11-04T02:21:59.336Z,13.83
2018-11-04T02:24:27.665Z,12.00
2018-11-04T02:26:55.952Z,11.73
2018-11-04T02:29:24.264Z,10.73
2018-11-04T02:31:52.537Z,10.40
2018-11-04T02:34:20.808Z,10.07
2018-11-04T02:36:49.403Z,11.67
2018-11-04T02:39:17.698Z,11.63
2018-11-04T02:41:46.397Z,10.80
2018-11-04T02:44:14.737Z,11.17
2018-11-04T02:46:43.028Z,12.37
2018-11-04T02:49:11.333Z,11.87
2018-11-04T02:51:39.872Z,11.47
2018-11-04T02:54:08.234Z,10.83
2018-11-04T02:56:36.726Z,10.90
2018-11-04T02:59:06.237Z,11.10
2018-11-04T03:01:34.621Z,11.43
2018-11-04T03:04:02.936Z,10.97
2018-11-04T03:06:31.278Z,11.13
2018-11-04T03:08:59.552Z,10.23
2018-11-04T03:11:27.839Z,10.70
2018-11-04T03:13:56.153Z,10.00
2018-11-04T03:16:24.429Z,10.40
2018-11-04T03:18:52.724Z,9.67
2018-11-04T03:21:21.053Z,10.00
2018-11-04T03:23:49.333Z,9.17
2018-11-04T03:26:17.697Z,10.20
2018-11-04T03:28:47.081Z,9.80
2018-11-04T03:31:15.368Z,10.03
2018-11-04T03:33:43.805Z,9.47
2018-11-04T03:36:12.113Z,9.23
2018-11-04T03:38:40.548Z,9.37
2018-11-04T03:41:08.830Z,8.97
2018-11-04T03:43:37.341Z,8.67
2018-11-04T03:46:06.185Z,8.43
2018-11-04T03:48:34.485Z,8.63
2018-11-04T03:51:03.045Z,8.57
2018-11-04T03:53:31.325Z,8.40
2018-11-04T03:55:59.613Z,8.80
2018-11-04T03:58:27.916Z,8.17
2018-11-04T04:00:56.195Z,7.67
2018-11-04T04:03:24.477Z,8.40
2018-11-04T04:05:52.908Z,7.83
2018-11-04T04:08:21.212Z,8.27
2018-11-04T04:10:49.497Z,8.27
2018-11-04T04:13:17.829Z,7.93
2018-11-04T04:15:46.579Z,7.57
2018-11-04T04:18:14.864Z,7.17
2018-11-04T04:20:43.676Z,7.97
2018-11-04T04:23:11.948Z,7.47
2018-11-04T04:25:40.376Z,7.57
2018-11-04T04:28:08.686Z,7.63
2018-11-04T04:30:37.033Z,7.67
2018-11-04T04:33:05.586Z,10.47
2018-11-04T04:35:33.889Z,7.97
2018-11-04T04:38:02.160Z,7.83
2018-11-04T04:40:30.445Z,7.80
2018-11-04T04:42:58.769Z,7.63
2018-11-04T04:45:27.049Z,7.87
2018-11-04T04:47:55.326Z,7.87
2018-11-04T04:50:23.721Z,7.80
2018-11-04T04:52:51.998Z,8.40
2018-11-04T04:55:20.274Z,7.90
2018-11-04T04:57:48.660Z,8.33
2018-11-04T05:00:16.944Z,7.80
2018-11-04T05:02:46.320Z,7.27
2018-11-04T05:05:14.856Z,8.93
2018-11-04T05:07:43.213Z,7.67
2018-11-04T05:10:11.549Z,8.00
2018-11-04T05:12:40.053Z,8.00
2018-11-04T05:15:08.918Z,7.83
2018-11-04T05:17:37.358Z,8.77
2018-11-04T05:20:05.733Z,8.80
2018-11-04T05:22:34.032Z,8.67
2018-11-04T05:25:02.323Z,8.37
2018-11-04T05:27:30.645Z,8.10
2018-11-04T05:29:58.924Z,8.50
2018-11-04T05:32:27.249Z,8.00
2018-11-04T05:34:55.652Z,15.10
2018-11-04T05:37:24.009Z,26.27
2018-11-04T05:39:52.292Z,8.43
2018-11-04T05:42:20.614Z,7.53
2018-11-04T05:44:49.009Z,8.27
2018-11-04T05:47:17.289Z,7.67
2018-11-04T05:49:45.892Z,8.27
2018-11-04T05:52:14.212Z,7.77
2018-11-04T05:54:42.650Z,9.17
2018-11-04T05:57:11.081Z,8.30
2018-11-04T05:59:39.437Z,8.03
2018-11-04T06:02:07.708Z,6.57
2018-11-04T06:04:36.086Z,7.63
2018-11-04T06:07:04.569Z,6.83
2018-11-04T06:09:32.925Z,6.80
2018-11-04T06:12:01.338Z,6.83
2018-11-04T06:14:29.688Z,7.50
2018-11-04T06:16:58.068Z,6.90
2018-11-04T06:19:26.455Z,7.50
2018-11-04T06:21:54.729Z,7.47
2018-11-04T06:24:23.076Z,6.47
2018-11-04T06:26:51.525Z,6.70
2018-11-04T06:29:20.073Z,6.70
2018-11-04T06:31:48.525Z,5.97
2018-11-04T06:34:17.073Z,6.70
2018-11-04T06:36:45.440Z,6.67
2018-11-04T06:39:13.769Z,7.33
2018-11-04T06:41:42.348Z,6.97
2018-11-04T06:44:10.748Z,7.67
2018-11-04T06:46:39.113Z,7.57
2018-11-04T06:49:07.525Z,7.53
2018-11-04T06:51:35.881Z,7.20
2018-11-04T06:54:04.285Z,7.80
2018-11-04T06:56:32.676Z,8.20
2018-11-04T06:59:00.956Z,8.37
2018-11-04T07:01:29.290Z,7.77
2018-11-04T07:04:25.370Z,7.23
2018-11-04T07:06:53.741Z,7.50
2018-11-04T07:09:22.050Z,7.90
2018-11-04T07:11:50.605Z,8.37
2018-11-04T07:14:19.549Z,8.27
2018-11-04T07:16:48.005Z,9.23
2018-11-04T07:19:16.632Z,8.10
2018-11-04T07:21:45.044Z,8.33
2018-11-04T07:24:13.389Z,8.00
2018-11-04T07:26:42.357Z,8.43
2018-11-04T07:29:10.904Z,8.10
2018-11-04T07:31:39.208Z,8.47
2018-11-04T07:34:07.853Z,9.33
2018-11-04T07:36:36.177Z,9.03
2018-11-04T07:39:08.420Z,8.60
2018-11-04T07:41:36.724Z,9.20
2018-11-04T07:44:05.333Z,7.97
2018-11-04T07:46:33.731Z,9.97
2018-11-04T07:49:02.102Z,8.30
2018-11-04T07:51:31.313Z,9.17
2018-11-04T07:53:59.673Z,7.93
2018-11-04T07:56:28.137Z,7.67
2018-11-04T07:58:56.441Z,7.10
2018-11-04T08:01:24.786Z,8.20
2018-11-04T08:03:53.223Z,7.40
2018-11-04T08:06:21.508Z,6.57
2018-11-04T08:08:50.069Z,7.10
2018-11-04T08:11:18.376Z,6.90
2018-11-04T08:13:46.853Z,7.20
2018-11-04T08:16:15.177Z,6.47
2018-11-04T08:18:43.657Z,7.07
2018-11-04T08:21:11.992Z,7.17
2018-11-04T08:23:40.417Z,5.77
2018-11-04T08:26:08.753Z,4.97
2018-11-04T08:28:37.112Z,5.80
2018-11-04T08:31:05.519Z,5.57
2018-11-04T08:33:33.806Z,5.83
2018-11-04T08:36:02.090Z,5.10
2018-11-04T08:38:30.400Z,5.30
2018-11-04T08:40:58.696Z,5.33
2018-11-04T08:43:26.981Z,4.87
2018-11-04T08:45:55.573Z,4.43
2018-11-04T08:48:23.899Z,12.43
2018-11-04T08:50:52.318Z,6.70
2018-11-04T08:53:20.620Z,4.60
2018-11-04T08:55:48.993Z,5.00
2018-11-04T08:58:17.386Z,5.13
2018-11-04T09:00:45.890Z,4.63
2018-11-04T09:03:14.209Z,5.23
2018-11-04T09:05:42.503Z,5.03
2018-11-04T09:08:10.946Z,4.93
2018-11-04T09:10:39.313Z,4.87
2018-11-04T09:13:07.612Z,4.70
2018-11-04T09:15:36.034Z,5.30
2018-11-04T09:18:04.373Z,4.53
2018-11-04T09:20:32.668Z,6.00
2018-11-04T09:23:01.100Z,5.43
2018-11-04T09:25:29.401Z,5.07
2018-11-04T09:27:57.801Z,5.00
2018-11-04T09:30:26.164Z,5.80
2018-11-04T09:32:54.558Z,5.90
2018-11-04T09:35:23.308Z,5.83
2018-11-04T09:37:51.653Z,6.40
2018-11-04T09:40:20.065Z,8.83
2018-11-04T09:42:48.667Z,6.13
2018-11-04T09:45:17.156Z,7.00
2018-11-04T09:47:45.604Z,5.83
2018-11-04T09:50:13.958Z,5.30
2018-11-04T09:52:42.374Z,5.50
2018-11-04T09:55:11.605Z,8.63
2018-11-04T09:57:39.968Z,5.30
2018-11-04T10:00:10.012Z,7.13
2018-11-04T10:02:38.585Z,11.20
2018-11-04T10:05:07.680Z,6.77
2018-11-04T10:07:36.125Z,6.27
2018-11-04T10:10:06.139Z,5.73
2018-11-04T10:12:34.417Z,5.63
2018-11-04T10:15:02.772Z,5.63
2018-11-04T10:17:31.069Z,6.10
2018-11-04T10:19:59.604Z,6.27
2018-11-04T10:22:27.721Z,5.40
2018-11-04T10:24:56.012Z,5.53
2018-11-04T10:27:24.288Z,6.30
2018-11-04T10:29:52.832Z,5.57
2018-11-04T10:32:21.112Z,6.00
2018-11-04T10:34:49.403Z,5.73
2018-11-04T10:37:17.813Z,5.63
2018-11-04T10:39:46.032Z,5.90
2018-11-04T10:42:14.457Z,5.90
2018-11-04T10:44:42.701Z,6.40
2018-11-04T10:47:11.030Z,6.57
2018-11-04T10:49:39.340Z,5.93
2018-11-04T10:52:07.690Z,6.43
2018-11-04T10:54:35.962Z,6.00
2018-11-04T10:57:04.453Z,6.53
2018-11-04T10:59:32.772Z,5.87
2018-11-04T11:02:01.071Z,5.57
2018-11-04T11:04:29.395Z,4.80
2018-11-04T11:06:57.776Z,6.07
2018-11-04T11:09:26.076Z,6.90
2018-11-04T11:11:54.380Z,6.07
2018-11-04T11:14:22.708Z,6.10
2018-11-04T11:16:51.111Z,6.03
2018-11-04T11:19:19.404Z,6.37
2018-11-04T11:21:47.727Z,6.80
2018-11-04T11:24:16.038Z,6.87
2018-11-04T11:26:44.362Z,7.00
2018-11-04T11:29:12.682Z,6.53
2018-11-04T11:31:40.969Z,7.10
2018-11-04T11:34:09.291Z,6.03
2018-11-04T11:36:37.633Z,5.80
2018-11-04T11:39:08.709Z,6.00
2018-11-04T11:41:37.042Z,5.27
2018-11-04T11:44:05.355Z,5.27
2018-11-04T11:46:33.638Z,5.50
2018-11-04T11:49:01.973Z,5.73
2018-11-04T11:51:30.267Z,5.73
2018-11-04T11:53:58.899Z,5.67
2018-11-04T11:56:27.222Z,6.20
2018-11-04T11:58:55.904Z,6.60
2018-11-04T12:01:24.214Z,6.47
2018-11-04T12:03:52.558Z,6.17
2018-11-04T12:06:20.843Z,6.40
2018-11-04T12:08:49.189Z,5.70
2018-11-04T12:11:17.545Z,6.03
2018-11-04T12:13:45.841Z,6.10
2018-11-04T12:16:14.702Z,6.37
2018-11-04T12:18:43.070Z,5.90
2018-11-04T12:21:11.406Z,6.27
2018-11-04T12:23:39.863Z,6.63
2018-11-04T12:26:08.173Z,7.50
2018-11-04T12:28:36.528Z,6.50
2018-11-04T12:31:05.301Z,5.57
2018-11-04T12:33:33.736Z,7.17
2018-11-04T12:36:02.144Z,6.50
2018-11-04T12:38:30.511Z,6.70
2018-11-04T12:40:58.926Z,5.93
2018-11-04T12:43:27.616Z,5.83
2018-11-04T12:45:56.014Z,8.03
2018-11-04T12:48:24.415Z,6.77
2018-11-04T12:50:52.821Z,6.17
2018-11-04T12:53:21.181Z,5.70
2018-11-04T12:55:49.921Z,6.53
2018-11-04T12:58:18.204Z,6.67
2018-11-04T13:00:46.480Z,6.10
2018-11-04T13:03:14.917Z,5.57
2018-11-04T13:05:43.274Z,19.47
2018-11-04T13:08:11.640Z,7.73
2018-11-04T13:10:40.252Z,8.20
2018-11-04T13:13:08.548Z,7.93
2018-11-04T13:15:36.979Z,14.87
2018-11-04T13:18:05.907Z,6.00
2018-11-04T13:20:34.336Z,6.70
2018-11-04T13:23:02.675Z,5.67
2018-11-04T13:25:31.039Z,6.80
2018-11-04T13:27:59.407Z,9.23
2018-11-04T13:30:27.729Z,7.50
2018-11-04T13:32:56.126Z,6.87
2018-11-04T13:35:24.423Z,6.30
2018-11-04T13:37:52.745Z,9.53
2018-11-04T13:40:21.071Z,6.80
2018-11-04T13:42:49.374Z,7.67
2018-11-04T13:45:17.683Z,17.93
2018-11-04T13:47:46.023Z,43.13
2018-11-04T13:50:14.734Z,8.00
2018-11-04T13:52:43.683Z,7.50
2018-11-04T13:55:12.098Z,8.47
2018-11-04T13:57:40.498Z,8.97
2018-11-04T14:00:10.782Z,7.80
2018-11-04T14:02:39.146Z,8.97
2018-11-04T14:05:07.965Z,9.57
2018-11-04T14:07:36.291Z,10.13
2018-11-04T14:10:05.034Z,10.00
2018-11-04T14:12:33.336Z,10.30
2018-11-04T14:15:01.650Z,10.53
2018-11-04T14:17:29.984Z,9.77
2018-11-04T14:19:58.633Z,9.53
2018-11-04T14:22:26.953Z,8.67
2018-11-04T14:24:55.286Z,11.50
2018-11-04T14:27:23.607Z,17.67
2018-11-04T14:29:51.924Z,18.47
2018-11-04T14:32:20.261Z,10.37
2018-11-04T14:34:48.590Z,14.30
2018-11-04T14:37:16.938Z,16.23
2018-11-04T14:39:45.273Z,16.10
2018-11-04T14:42:13.635Z,16.83
2018-11-04T14:44:41.956Z,18.00
2018-11-04T14:47:10.349Z,11.10
2018-11-04T14:49:38.630Z,20.73
2018-11-04T14:52:07.013Z,26.10
2018-11-04T14:54:35.674Z,24.60
2018-11-04T14:57:04.069Z,16.93
2018-11-04T14:59:32.425Z,15.57
2018-11-04T15:02:00.977Z,14.97
2018-11-04T15:04:29.126Z,13.57
2018-11-04T15:06:57.692Z,14.57
2018-11-04T15:09:26.138Z,14.73
2018-11-04T15:11:54.454Z,15.37
2018-11-04T15:14:22.847Z,13.40
2018-11-04T15:16:51.201Z,17.37
2018-11-04T15:19:19.554Z,17.93
2018-11-04T15:21:47.891Z,16.23
2018-11-04T15:24:16.626Z,12.23
2018-11-04T15:26:44.955Z,12.30
2018-11-04T15:29:13.283Z,12.23
2018-11-04T15:31:41.711Z,12.90
2018-11-04T15:34:10.119Z,13.47
2018-11-04T15:36:38.428Z,12.00
2018-11-04T15:39:08.910Z,16.17
2018-11-04T15:41:37.376Z,13.63
2018-11-04T15:44:05.738Z,13.83
2018-11-04T15:46:34.127Z,13.70
2018-11-04T15:49:02.585Z,13.10
2018-11-04T15:51:30.886Z,12.70
2018-11-04T15:53:59.302Z,12.67
2018-11-04T15:56:27.891Z,11.83
2018-11-04T15:58:56.296Z,14.17
2018-11-04T16:01:24.644Z,12.00
2018-11-04T16:03:53.032Z,25.37
2018-11-04T16:06:21.340Z,12.03
2018-11-04T16:08:50.302Z,11.80
2018-11-04T16:11:18.684Z,11.60
2018-11-04T16:13:47.129Z,11.83
2018-11-04T16:16:15.530Z,11.77
2018-11-04T16:18:44.033Z,12.60
2018-11-04T16:21:12.242Z,12.07
2018-11-04T16:23:40.746Z,11.70
2018-11-04T16:26:09.072Z,11.30
2018-11-04T16:28:37.439Z,16.50
2018-11-04T16:31:05.819Z,14.10
2018-11-04T16:33:34.214Z,11.93
2018-11-04T16:36:02.593Z,13.17
2018-11-04T16:38:30.998Z,13.03
2018-11-04T16:40:59.384Z,14.37
2018-11-04T16:43:27.803Z,13.93
2018-11-04T16:45:56.129Z,12.13
2018-11-04T16:48:24.494Z,12.53
2018-11-04T16:50:52.914Z,12.70
2018-11-04T16:53:21.319Z,10.97
2018-11-04T16:55:49.859Z,11.07
2018-11-04T16:58:18.178Z,11.97
2018-11-04T17:00:46.492Z,12.33
2018-11-04T17:03:14.765Z,11.67
2018-11-04T17:05:43.247Z,11.57
2018-11-04T17:08:11.346Z,10.97
2018-11-04T17:10:39.683Z,11.67
2018-11-04T17:13:08.049Z,10.57
2018-11-04T17:15:36.490Z,10.73
2018-11-04T17:18:05.041Z,12.80
2018-11-04T17:20:33.334Z,12.40
2018-11-04T17:23:01.645Z,11.50
2018-11-04T17:25:29.905Z,14.67
2018-11-04T17:27:58.234Z,12.27
2018-11-04T17:30:26.580Z,12.60
2018-11-04T17:32:55.008Z,13.33
2018-11-04T17:35:23.340Z,10.87
2018-11-04T17:37:51.769Z,11.67
2018-11-04T17:40:20.125Z,11.53
2018-11-04T17:42:48.396Z,11.43
2018-11-04T17:45:17.394Z,12.43
2018-11-04T17:47:46.223Z,12.57
2018-11-04T17:50:16.138Z,13.43
2018-11-04T17:52:44.722Z,13.17
2018-11-04T17:55:13.067Z,13.67
2018-11-04T17:57:41.433Z,14.33
2018-11-04T18:00:10.816Z,13.03
2018-11-04T18:02:39.592Z,14.07
2018-11-04T18:05:08.726Z,13.70
2018-11-04T18:07:37.049Z,14.33
2018-11-04T18:10:05.618Z,14.23
2018-11-04T18:12:33.931Z,16.00
2018-11-04T18:15:02.281Z,14.93
2018-11-04T18:17:30.945Z,14.27
2018-11-04T18:19:59.348Z,15.03
2018-11-04T18:22:27.794Z,14.27
2018-11-04T18:24:56.257Z,14.77
2018-11-04T18:27:24.876Z,14.93
2018-11-04T18:29:53.927Z,17.97
2018-11-04T18:32:22.387Z,16.10
2018-11-04T18:34:50.673Z,15.43
2018-11-04T18:37:19.091Z,16.90
2018-11-04T18:39:47.440Z,15.43
2018-11-04T18:42:15.786Z,15.27
2018-11-04T18:44:44.264Z,14.77
2018-11-04T18:47:12.632Z,15.50
2018-11-04T18:49:40.972Z,15.50
2018-11-04T18:52:09.625Z,15.07
2018-11-04T18:54:38.136Z,14.90
2018-11-04T18:57:06.653Z,14.83
2018-11-04T18:59:35.091Z,14.50
2018-11-04T19:02:03.515Z,14.77
2018-11-04T19:04:31.836Z,16.10
2018-11-04T19:07:00.538Z,14.23
2018-11-04T19:09:28.862Z,14.83
2018-11-04T19:11:57.314Z,13.37
2018-11-04T19:14:25.627Z,14.50
2018-11-04T19:16:54.011Z,14.13
2018-11-04T19:19:22.256Z,13.23
2018-11-04T19:21:50.593Z,12.43
2018-11-04T19:24:18.874Z,13.13
2018-11-04T19:26:47.161Z,12.47
2018-11-04T19:29:15.490Z,13.50
2018-11-04T19:31:43.905Z,13.00
2018-11-04T19:34:12.344Z,13.17
2018-11-04T19:36:41.021Z,13.17
2018-11-04T19:39:10.518Z,14.50
2018-11-04T19:41:38.918Z,15.00
2018-11-04T19:44:07.289Z,14.30
2018-11-04T19:46:35.804Z,15.93
2018-11-04T19:49:04.356Z,15.40
2018-11-04T19:51:32.694Z,15.63
2018-11-04T19:54:01.089Z,17.10
2018-11-04T19:56:29.433Z,17.20
2018-11-04T19:58:57.769Z,17.20
2018-11-04T20:01:26.080Z,16.50
2018-11-04T20:03:54.376Z,18.40
2018-11-04T20:06:22.772Z,17.63
2018-11-04T20:08:56.438Z,17.63
2018-11-04T20:11:24.742Z,17.67
2018-11-04T20:13:58.418Z,19.27
2018-11-04T20:16:26.747Z,18.30
2018-11-04T20:19:00.369Z,18.70
2018-11-04T20:21:28.691Z,20.87
2018-11-04T20:23:57.065Z,20.30
2018-11-04T20:26:25.430Z,21.37
2018-11-04T20:28:53.744Z,21.87
2018-11-04T20:31:27.510Z,22.07
2018-11-04T20:33:56.183Z,22.47
2018-11-04T20:36:24.459Z,21.07
2018-11-04T20:38:58.440Z,21.77
2018-11-04T20:41:30.606Z,22.17
2018-11-04T20:43:59.676Z,22.57
2018-11-04T20:46:28.020Z,22.53
2018-11-04T20:49:01.911Z,22.73
2018-11-04T20:51:30.238Z,24.13
2018-11-04T20:53:58.489Z,23.43
2018-11-04T20:56:32.208Z,25.00
2018-11-04T20:59:00.490Z,25.67
2018-11-04T21:01:28.792Z,26.87
2018-11-04T21:03:57.249Z,25.70
2018-11-04T21:06:25.481Z,27.87
2018-11-04T21:08:53.884Z,27.03
2018-11-04T21:11:22.177Z,26.43
2018-11-04T21:13:50.448Z,28.60
2018-11-04T21:16:18.828Z,26.10
2018-11-04T21:18:47.123Z,26.53
2018-11-04T21:21:16.175Z,27.90
2018-11-04T21:23:44.456Z,26.60
2018-11-04T21:26:14.007Z,26.97
2018-11-04T21:28:42.347Z,26.70
2018-11-04T21:31:10.842Z,27.53
2018-11-04T21:33:39.101Z,26.53
2018-11-04T21:36:07.406Z,25.90
2018-11-04T21:38:35.720Z,27.87
2018-11-04T21:41:04.250Z,27.20
2018-11-04T21:43:32.702Z,25.97
2018-11-04T21:46:00.875Z,24.77
2018-11-04T21:48:29.190Z,26.37
2018-11-04T21:50:57.480Z,25.17
2018-11-04T21:53:25.895Z,25.90
2018-11-04T21:55:54.501Z,25.47
2018-11-04T21:58:22.824Z,25.80
2018-11-04T22:00:51.371Z,26.53
2018-11-04T22:03:20.213Z,26.63
2018-11-04T22:05:48.338Z,26.20
2018-11-04T22:08:16.728Z,26.43
2018-11-04T22:10:45.440Z,26.70
2018-11-04T22:13:13.730Z,26.63
2018-11-04T22:15:42.010Z,25.93
2018-11-04T22:18:10.488Z,27.07
2018-11-04T22:20:38.754Z,27.17
2018-11-04T22:23:07.204Z,25.83
2018-11-04T22:25:35.547Z,27.23
2018-11-04T22:28:03.900Z,26.37
2018-11-04T22:30:32.174Z,27.23
2018-11-04T22:33:00.570Z,28.03
2018-11-04T22:35:28.833Z,26.80
2018-11-04T22:37:57.092Z,27.03
2018-11-04T22:40:25.407Z,26.50
2018-11-04T22:42:53.698Z,26.67
2018-11-04T22:45:21.973Z,27.13
2018-11-04T22:47:50.278Z,26.37
2018-11-04T22:50:18.777Z,26.87
2018-11-04T22:52:47.050Z,26.00
2018-11-04T22:55:15.528Z,26.03
2018-11-04T22:57:44.234Z,27.50
2018-11-04T23:00:18.166Z,26.47
2018-11-04T23:02:47.877Z,27.57
2018-11-04T23:05:28.048Z,27.20
2018-11-04T23:07:56.381Z,26.80
2018-11-04T23:10:24.649Z,26.90
2018-11-04T23:12:52.943Z,26.50
2018-11-04T23:15:21.228Z,25.70
2018-11-04T23:17:49.495Z,26.77
2018-11-04T23:20:17.928Z,26.40
2018-11-04T23:22:46.192Z,26.97
2018-11-04T23:25:14.998Z,27.40
2018-11-04T23:27:43.839Z,26.40
2018-11-04T23:30:14.341Z,27.17
2018-11-04T23:32:43.130Z,27.67
2018-11-04T23:35:12.160Z,25.93
2018-11-04T23:37:40.714Z,26.57
2018-11-04T23:40:09.790Z,26.73
2018-11-04T23:42:38.102Z,26.83
2018-11-04T23:45:07.293Z,25.87
2018-11-04T23:47:35.595Z,24.50
2018-11-04T23:50:04.377Z,25.17
2018-11-04T23:52:32.641Z,25.80
2018-11-04T23:55:00.913Z,27.53
2018-11-04T23:57:29.211Z,27.27
2018-11-04T23:59:57.484Z,26.10
